createdAt,value
2018-05-21T00:00:52.476Z,936.74
2018-05-21T00:01:52.477Z,936.72
2018-05-21T00:02:52.476Z,936.69
2018-05-21T00:03:52.479Z,936.70
2018-05-21T00:04:52.473Z,936.70
2018-05-21T00:05:52.473Z,936.65
2018-05-21T00:06:52.471Z,936.62
2018-05-21T00:07:52.469Z,936.64
2018-05-21T00:08:52.467Z,936.66
2018-05-21T00:09:52.467Z,936.63
2018-05-21T00:10:52.467Z,936.62
2018-05-21T00:11:52.465Z,936.64
2018-05-21T00:12:52.463Z,936.62
2018-05-21T00:13:52.462Z,936.58
2018-05-21T00:14:52.466Z,936.59
2018-05-21T00:15:52.460Z,936.56
2018-05-21T00:16:52.468Z,936.57
2018-05-21T00:17:52.458Z,936.54
2018-05-21T00:18:52.456Z,936.52
2018-05-21T00:19:52.455Z,936.56
2018-05-21T00:20:52.455Z,936.58
2018-05-21T00:21:52.453Z,936.51
2018-05-21T00:22:52.451Z,936.48
2018-05-21T00:23:52.449Z,936.52
2018-05-21T00:24:52.449Z,936.52
2018-05-21T00:25:52.448Z,936.47
2018-05-21T00:26:52.446Z,936.44
2018-05-21T00:27:52.444Z,936.45
2018-05-21T00:28:52.445Z,936.48
2018-05-21T00:29:52.446Z,936.48
2018-05-21T00:30:52.441Z,936.44
2018-05-21T00:31:52.441Z,936.45
2018-05-21T00:32:52.439Z,936.43
2018-05-21T00:33:52.437Z,936.43
2018-05-21T00:34:52.437Z,936.43
2018-05-21T00:35:52.435Z,936.43
2018-05-21T00:36:52.433Z,936.47
2018-05-21T00:37:52.431Z,936.47
2018-05-21T00:38:52.431Z,936.43
2018-05-21T00:39:52.429Z,936.42
2018-05-21T00:40:52.427Z,936.42
2018-05-21T00:41:52.426Z,936.40
2018-05-21T00:42:52.424Z,936.39
2018-05-21T00:43:52.469Z,936.39
2018-05-21T00:44:52.421Z,936.38
2018-05-21T00:45:52.420Z,936.40
2018-05-21T00:46:52.420Z,936.40
2018-05-21T00:47:52.417Z,936.42
2018-05-21T00:48:52.417Z,936.44
2018-05-21T00:49:52.415Z,936.37
2018-05-21T00:50:52.413Z,936.33
2018-05-21T00:51:52.411Z,936.39
2018-05-21T00:52:52.409Z,936.40
2018-05-21T00:53:52.408Z,936.36
2018-05-21T00:54:52.407Z,936.32
2018-05-21T00:55:52.406Z,936.34
2018-05-21T00:56:52.404Z,936.34
2018-05-21T00:57:52.402Z,936.32
2018-05-21T00:58:52.401Z,936.30
2018-05-21T00:59:52.399Z,936.30
2018-05-21T01:00:52.397Z,936.28
2018-05-21T01:01:52.396Z,936.27
2018-05-21T01:02:52.396Z,936.30
2018-05-21T01:03:52.392Z,936.28
2018-05-21T01:04:52.392Z,936.27
2018-05-21T01:05:52.390Z,936.28
2018-05-21T01:06:52.388Z,936.25
2018-05-21T01:07:52.393Z,936.23
2018-05-21T01:08:52.385Z,936.22
2018-05-21T01:09:52.384Z,936.22
2018-05-21T01:10:52.383Z,936.22
2018-05-21T01:11:52.385Z,936.22
2018-05-21T01:12:52.379Z,936.20
2018-05-21T01:13:52.378Z,936.20
2018-05-21T01:14:52.377Z,936.22
2018-05-21T01:15:52.375Z,936.23
2018-05-21T01:16:52.372Z,936.22
2018-05-21T01:17:52.372Z,936.19
2018-05-21T01:18:52.377Z,936.18
2018-05-21T01:19:52.369Z,936.23
2018-05-21T01:20:52.368Z,936.17
2018-05-21T01:21:52.368Z,936.16
2018-05-21T01:22:52.363Z,936.20
2018-05-21T01:23:52.360Z,936.21
2018-05-21T01:24:52.359Z,936.21
2018-05-21T01:25:52.358Z,936.26
2018-05-21T01:26:52.356Z,936.21
2018-05-21T01:27:52.357Z,936.24
2018-05-21T01:28:52.626Z,936.20
2018-05-21T01:29:52.354Z,936.20
2018-05-21T01:30:52.351Z,936.24
2018-05-21T01:31:52.347Z,936.24
2018-05-21T01:32:52.346Z,936.20
2018-05-21T01:33:52.345Z,936.16
2018-05-21T01:34:52.342Z,936.15
2018-05-21T01:35:52.339Z,936.13
2018-05-21T01:36:52.339Z,936.12
2018-05-21T01:37:52.337Z,936.11
2018-05-21T01:38:52.336Z,936.14
2018-05-21T01:39:52.333Z,936.13
2018-05-21T01:40:52.336Z,936.12
2018-05-21T01:41:52.330Z,936.11
2018-05-21T01:42:52.328Z,936.09
2018-05-21T01:43:52.326Z,936.09
2018-05-21T01:44:52.325Z,936.11
2018-05-21T01:45:52.323Z,936.12
2018-05-21T01:46:52.321Z,936.16
2018-05-21T01:47:52.319Z,936.11
2018-05-21T01:48:52.319Z,936.13
2018-05-21T01:49:52.316Z,936.08
2018-05-21T01:50:52.313Z,936.06
2018-05-21T01:51:52.312Z,936.12
2018-05-21T01:52:52.317Z,936.11
2018-05-21T01:53:52.310Z,936.09
2018-05-21T01:54:52.309Z,936.14
2018-05-21T01:55:52.304Z,936.10
2018-05-21T01:56:52.304Z,936.10
2018-05-21T01:57:52.302Z,936.09
2018-05-21T01:58:52.300Z,936.10
2018-05-21T01:59:52.298Z,936.04
2018-05-21T02:00:52.297Z,936.04
2018-05-21T02:01:52.294Z,936.01
2018-05-21T02:02:52.293Z,936.04
2018-05-21T02:03:52.291Z,936.06
2018-05-21T02:04:52.289Z,936.00
2018-05-21T02:05:52.288Z,936.03
2018-05-21T02:06:52.286Z,936.01
2018-05-21T02:07:52.283Z,936.00
2018-05-21T02:08:52.282Z,936.02
2018-05-21T02:09:52.280Z,936.00
2018-05-21T02:10:52.279Z,936.04
2018-05-21T02:11:52.275Z,936.03
2018-05-21T02:12:52.279Z,936.02
2018-05-21T02:13:52.505Z,936.05
2018-05-21T02:14:52.270Z,936.04
2018-05-21T02:15:52.269Z,936.04
2018-05-21T02:16:52.266Z,936.06
2018-05-21T02:17:52.264Z,936.05
2018-05-21T02:18:52.263Z,936.04
2018-05-21T02:19:52.265Z,936.05
2018-05-21T02:20:52.258Z,936.02
2018-05-21T02:21:52.257Z,936.08
2018-05-21T02:22:52.697Z,936.09
2018-05-21T02:23:52.252Z,936.03
2018-05-21T02:24:52.254Z,936.06
2018-05-21T02:25:52.249Z,935.94
2018-05-21T02:26:52.288Z,935.97
2018-05-21T02:27:52.247Z,936.01
2018-05-21T02:28:52.246Z,935.96
2018-05-21T02:29:52.240Z,935.98
2018-05-21T02:30:52.240Z,935.99
2018-05-21T02:31:52.237Z,936.00
2018-05-21T02:32:52.235Z,935.98
2018-05-21T02:33:52.235Z,935.97
2018-05-21T02:34:52.232Z,935.94
2018-05-21T02:35:52.232Z,935.97
2018-05-21T02:36:52.228Z,935.96
2018-05-21T02:37:52.225Z,935.96
2018-05-21T02:38:52.224Z,935.98
2018-05-21T02:39:52.229Z,936.03
2018-05-21T02:40:52.220Z,935.96
2018-05-21T02:41:52.223Z,935.99
2018-05-21T02:42:52.215Z,935.99
2018-05-21T02:43:52.213Z,935.97
2018-05-21T02:44:52.212Z,935.93
2018-05-21T02:45:52.209Z,935.92
2018-05-21T02:46:52.207Z,935.91
2018-05-21T02:47:52.205Z,935.98
2018-05-21T02:48:52.204Z,935.90
2018-05-21T02:49:52.201Z,935.94
2018-05-21T02:50:52.201Z,935.90
2018-05-21T02:51:52.197Z,935.95
2018-05-21T02:52:52.194Z,935.87
2018-05-21T02:53:52.198Z,935.89
2018-05-21T02:54:52.190Z,935.87
2018-05-21T02:55:52.190Z,935.86
2018-05-21T02:56:52.187Z,935.85
2018-05-21T02:57:52.185Z,935.81
2018-05-21T02:58:52.183Z,935.82
2018-05-21T02:59:52.181Z,935.84
2018-05-21T03:00:52.180Z,935.80
2018-05-21T03:01:52.182Z,935.80
2018-05-21T03:02:52.175Z,935.83
2018-05-21T03:03:52.173Z,935.82
2018-05-21T03:04:52.174Z,935.80
2018-05-21T03:05:52.170Z,935.79
2018-05-21T03:06:52.167Z,935.79
2018-05-21T03:07:52.164Z,935.76
2018-05-21T03:08:52.164Z,935.78
2018-05-21T03:09:52.161Z,935.79
2018-05-21T03:10:52.159Z,935.78
2018-05-21T03:11:52.157Z,935.76
2018-05-21T03:12:52.154Z,935.75
2018-05-21T03:13:52.153Z,935.79
2018-05-21T03:14:52.151Z,935.73
2018-05-21T03:15:52.148Z,935.72
2018-05-21T03:16:52.148Z,935.74
2018-05-21T03:17:52.145Z,935.74
2018-05-21T03:18:52.144Z,935.75
2018-05-21T03:19:52.139Z,935.78
2018-05-21T03:20:52.138Z,935.80
2018-05-21T03:21:52.136Z,935.85
2018-05-21T03:22:52.134Z,935.78
2018-05-21T03:23:52.132Z,935.80
2018-05-21T03:24:52.130Z,935.86
2018-05-21T03:25:52.129Z,935.79
2018-05-21T03:26:52.126Z,935.79
2018-05-21T03:27:52.124Z,935.76
2018-05-21T03:28:52.122Z,935.79
2018-05-21T03:29:52.121Z,935.79
2018-05-21T03:30:52.120Z,935.79
2018-05-21T03:31:52.117Z,935.80
2018-05-21T03:32:52.115Z,935.78
2018-05-21T03:33:52.116Z,935.84
2018-05-21T03:34:52.115Z,935.76
2018-05-21T03:35:52.108Z,935.78
2018-05-21T03:36:52.105Z,935.78
2018-05-21T03:37:52.105Z,935.76
2018-05-21T03:38:52.103Z,935.79
2018-05-21T03:39:52.099Z,935.76
2018-05-21T03:40:52.097Z,935.76
2018-05-21T03:41:52.095Z,935.77
2018-05-21T03:42:52.094Z,935.74
2018-05-21T03:43:52.090Z,935.74
2018-05-21T03:44:52.090Z,935.73
2018-05-21T03:45:52.088Z,935.72
2018-05-21T03:46:52.086Z,935.76
2018-05-21T03:47:52.083Z,935.74
2018-05-21T03:48:52.081Z,935.71
2018-05-21T03:49:52.079Z,935.78
2018-05-21T03:50:52.096Z,935.75
2018-05-21T03:51:52.074Z,935.75
2018-05-21T03:52:52.105Z,935.75
2018-05-21T03:53:52.071Z,935.80
2018-05-21T03:54:52.070Z,935.76
2018-05-21T03:55:52.069Z,935.76
2018-05-21T03:56:52.147Z,935.79
2018-05-21T03:57:52.063Z,935.79
2018-05-21T03:58:52.089Z,935.80
2018-05-21T03:59:52.059Z,935.82
2018-05-21T04:00:52.056Z,935.77
2018-05-21T04:01:52.057Z,935.75
2018-05-21T04:02:52.055Z,935.83
2018-05-21T04:03:52.048Z,935.76
2018-05-21T04:04:52.047Z,935.74
2018-05-21T04:05:52.050Z,935.79
2018-05-21T04:06:52.045Z,935.76
2018-05-21T04:07:52.040Z,935.75
2018-05-21T04:08:52.038Z,935.78
2018-05-21T04:09:52.037Z,935.74
2018-05-21T04:10:52.037Z,935.75
2018-05-21T04:11:52.036Z,935.74
2018-05-21T04:12:52.029Z,935.79
2018-05-21T04:13:52.031Z,935.79
2018-05-21T04:14:52.026Z,935.77
2018-05-21T04:15:52.024Z,935.77
2018-05-21T04:16:52.022Z,935.79
2018-05-21T04:17:52.020Z,935.80
2018-05-21T04:18:52.094Z,935.79
2018-05-21T04:19:52.015Z,935.79
2018-05-21T04:20:52.013Z,935.82
2018-05-21T04:21:52.012Z,935.83
2018-05-21T04:22:52.010Z,935.84
2018-05-21T04:23:52.007Z,935.85
2018-05-21T04:24:52.005Z,935.83
2018-05-21T04:25:52.002Z,935.83
2018-05-21T04:26:52.001Z,935.84
2018-05-21T04:27:51.999Z,935.86
2018-05-21T04:28:51.996Z,935.86
2018-05-21T04:29:51.995Z,935.83
2018-05-21T04:30:51.992Z,935.84
2018-05-21T04:31:51.992Z,935.84
2018-05-21T04:32:51.988Z,935.84
2018-05-21T04:33:51.986Z,935.81
2018-05-21T04:34:51.985Z,935.78
2018-05-21T04:35:51.982Z,935.81
2018-05-21T04:36:51.980Z,935.79
2018-05-21T04:37:51.978Z,935.82
2018-05-21T04:38:51.977Z,935.81
2018-05-21T04:39:51.974Z,935.79
2018-05-21T04:40:51.972Z,935.76
2018-05-21T04:41:51.973Z,935.75
2018-05-21T04:42:51.969Z,935.78
2018-05-21T04:43:51.968Z,935.77
2018-05-21T04:44:51.966Z,935.76
2018-05-21T04:45:51.963Z,935.80
2018-05-21T04:46:51.965Z,935.83
2018-05-21T04:47:51.961Z,935.83
2018-05-21T04:48:51.958Z,935.81
2018-05-21T04:49:51.956Z,935.86
2018-05-21T04:50:51.954Z,935.86
2018-05-21T04:51:51.952Z,935.87
2018-05-21T04:52:51.950Z,935.86
2018-05-21T04:53:51.953Z,935.84
2018-05-21T04:54:51.948Z,935.88
2018-05-21T04:55:51.944Z,935.86
2018-05-21T04:56:51.943Z,935.82
2018-05-21T04:57:51.940Z,935.83
2018-05-21T04:58:51.939Z,935.85
2018-05-21T04:59:51.938Z,935.84
2018-05-21T05:00:51.936Z,935.82
2018-05-21T05:01:51.934Z,935.84
2018-05-21T05:02:51.933Z,935.82
2018-05-21T05:03:51.931Z,935.83
2018-05-21T05:04:51.929Z,935.86
2018-05-21T05:05:51.996Z,935.86
2018-05-21T05:06:51.927Z,935.83
2018-05-21T05:07:51.927Z,935.84
2018-05-21T05:08:51.922Z,935.85
2018-05-21T05:09:51.922Z,935.87
2018-05-21T05:10:51.920Z,935.86
2018-05-21T05:11:51.993Z,935.86
2018-05-21T05:12:51.916Z,935.88
2018-05-21T05:13:51.916Z,935.89
2018-05-21T05:14:51.914Z,935.89
2018-05-21T05:15:51.910Z,935.89
2018-05-21T05:16:51.910Z,935.89
2018-05-21T05:17:51.908Z,935.86
2018-05-21T05:18:51.908Z,935.87
2018-05-21T05:19:51.905Z,935.93
2018-05-21T05:20:51.905Z,935.89
2018-05-21T05:21:51.903Z,935.90
2018-05-21T05:22:51.901Z,935.92
2018-05-21T05:23:51.900Z,935.90
2018-05-21T05:24:51.904Z,935.93
2018-05-21T05:25:51.898Z,935.94
2018-05-21T05:26:51.897Z,935.95
2018-05-21T05:27:51.895Z,935.93
2018-05-21T05:28:51.894Z,935.92
2018-05-21T05:29:51.893Z,935.92
2018-05-21T05:30:51.892Z,935.92
2018-05-21T05:31:51.891Z,935.91
2018-05-21T05:32:51.888Z,935.90
2018-05-21T05:33:51.888Z,935.94
2018-05-21T05:34:51.887Z,935.90
2018-05-21T05:35:51.910Z,935.91
2018-05-21T05:36:51.883Z,935.92
2018-05-21T05:37:51.885Z,935.89
2018-05-21T05:38:51.883Z,935.89
2018-05-21T05:39:51.884Z,935.93
2018-05-21T05:40:51.882Z,935.93
2018-05-21T05:41:51.878Z,935.93
2018-05-21T05:42:51.878Z,935.93
2018-05-21T05:43:51.876Z,935.94
2018-05-21T05:44:51.880Z,935.93
2018-05-21T05:45:51.874Z,935.95
2018-05-21T05:46:51.873Z,935.93
2018-05-21T05:47:51.872Z,935.92
2018-05-21T05:48:51.873Z,935.93
2018-05-21T05:49:51.873Z,935.96
2018-05-21T05:50:51.871Z,936.00
2018-05-21T05:51:51.867Z,935.95
2018-05-21T05:52:51.868Z,935.98
2018-05-21T05:53:51.866Z,935.94
2018-05-21T05:54:51.868Z,935.96
2018-05-21T05:55:51.864Z,935.95
2018-05-21T05:56:51.863Z,936.00
2018-05-21T05:57:51.863Z,935.99
2018-05-21T05:58:51.864Z,936.01
2018-05-21T05:59:51.860Z,936.03
2018-05-21T06:00:51.860Z,936.03
2018-05-21T06:01:51.859Z,936.02
2018-05-21T06:02:51.860Z,936.05
2018-05-21T06:03:51.858Z,936.03
2018-05-21T06:04:51.859Z,936.07
2018-05-21T06:05:51.856Z,936.03
2018-05-21T06:06:51.856Z,936.06
2018-05-21T06:07:51.857Z,936.05
2018-05-21T06:08:51.854Z,936.05
2018-05-21T06:09:51.853Z,936.05
2018-05-21T06:10:51.858Z,936.06
2018-05-21T06:11:51.855Z,936.06
2018-05-21T06:12:51.857Z,936.08
2018-05-21T06:13:51.853Z,936.09
2018-05-21T06:14:51.853Z,936.08
2018-05-21T06:15:51.850Z,936.08
2018-05-21T06:16:51.852Z,936.11
2018-05-21T06:17:51.851Z,936.08
2018-05-21T06:18:51.851Z,936.09
2018-05-21T06:19:51.851Z,936.10
2018-05-21T06:20:51.849Z,936.09
2018-05-21T06:21:51.851Z,936.08
2018-05-21T06:22:51.851Z,936.12
2018-05-21T06:23:51.850Z,936.16
2018-05-21T06:24:51.850Z,936.14
2018-05-21T06:25:51.872Z,936.16
2018-05-21T06:26:51.852Z,936.18
2018-05-21T06:27:51.850Z,936.16
2018-05-21T06:28:51.851Z,936.16
2018-05-21T06:29:51.854Z,936.18
2018-05-21T06:30:51.851Z,936.18
2018-05-21T06:31:51.849Z,936.19
2018-05-21T06:32:51.850Z,936.14
2018-05-21T06:33:51.862Z,936.20
2018-05-21T06:34:51.861Z,936.14
2018-05-21T06:35:51.851Z,936.16
2018-05-21T06:36:51.851Z,936.16
2018-05-21T06:37:51.852Z,936.20
2018-05-21T06:38:51.853Z,936.20
2018-05-21T06:39:51.853Z,936.18
2018-05-21T06:40:51.853Z,936.18
2018-05-21T06:41:51.854Z,936.15
2018-05-21T06:42:51.855Z,936.17
2018-05-21T06:43:51.855Z,936.14
2018-05-21T06:44:51.856Z,936.11
2018-05-21T06:45:51.856Z,936.11
2018-05-21T06:46:51.857Z,936.10
2018-05-21T06:47:51.903Z,936.10
2018-05-21T06:48:51.858Z,936.07
2018-05-21T06:49:51.859Z,936.07
2018-05-21T06:50:51.860Z,936.10
2018-05-21T06:51:51.860Z,936.09
2018-05-21T06:52:51.860Z,936.06
2018-05-21T06:53:51.861Z,936.08
2018-05-21T06:54:51.865Z,936.07
2018-05-21T06:55:51.863Z,936.09
2018-05-21T06:56:51.863Z,936.11
2018-05-21T06:57:51.866Z,936.11
2018-05-21T06:58:51.866Z,936.10
2018-05-21T06:59:51.872Z,936.12
2018-05-21T07:00:51.867Z,936.10
2018-05-21T07:01:51.871Z,936.10
2018-05-21T07:02:51.879Z,936.05
2018-05-21T07:03:51.870Z,936.05
2018-05-21T07:04:51.872Z,936.01
2018-05-21T07:05:51.874Z,936.01
2018-05-21T07:06:51.874Z,936.01
2018-05-21T07:07:51.876Z,935.98
2018-05-21T07:08:51.875Z,935.99
2018-05-21T07:09:51.878Z,935.97
2018-05-21T07:10:51.878Z,936.02
2018-05-21T07:11:51.880Z,936.10
2018-05-21T07:12:51.881Z,936.17
2018-05-21T07:13:51.884Z,936.22
2018-05-21T07:14:51.885Z,936.22
2018-05-21T07:15:51.886Z,936.21
2018-05-21T07:16:51.889Z,936.23
2018-05-21T07:17:51.891Z,936.17
2018-05-21T07:18:51.895Z,936.18
2018-05-21T07:19:51.899Z,936.17
2018-05-21T07:20:51.900Z,936.21
2018-05-21T07:21:51.904Z,936.22
2018-05-21T07:22:51.908Z,936.34
2018-05-21T07:23:51.912Z,936.46
2018-05-21T07:24:51.916Z,936.49
2018-05-21T07:25:51.920Z,936.45
2018-05-21T07:26:51.926Z,936.39
2018-05-21T07:27:51.929Z,936.51
2018-05-21T07:28:51.933Z,936.41
2018-05-21T07:29:51.944Z,936.43
2018-05-21T07:30:51.945Z,936.35
2018-05-21T07:31:51.951Z,936.16
2018-05-21T07:32:51.957Z,936.18
2018-05-21T07:33:51.960Z,936.18
2018-05-21T07:34:51.968Z,936.15
2018-05-21T07:35:51.973Z,936.12
2018-05-21T07:36:51.978Z,936.11
2018-05-21T07:37:51.983Z,936.10
2018-05-21T07:38:52.055Z,936.18
2018-05-21T07:39:51.994Z,936.11
2018-05-21T07:40:51.998Z,936.08
2018-05-21T07:41:52.005Z,936.07
2018-05-21T07:42:52.010Z,936.10
2018-05-21T07:43:52.063Z,936.09
2018-05-21T07:44:52.079Z,936.16
2018-05-21T07:45:52.027Z,936.18
2018-05-21T07:46:52.030Z,936.18
2018-05-21T07:47:52.036Z,936.17
2018-05-21T07:48:52.042Z,936.21
2018-05-21T07:49:52.047Z,936.27
2018-05-21T07:50:52.054Z,936.35
2018-05-21T07:51:52.065Z,936.39
2018-05-21T07:52:52.068Z,936.41
2018-05-21T07:53:52.075Z,936.44
2018-05-21T07:54:52.084Z,936.43
2018-05-21T07:55:52.093Z,936.41
2018-05-21T07:56:52.102Z,936.42
2018-05-21T07:57:52.123Z,936.43
2018-05-21T07:58:52.122Z,936.39
2018-05-21T07:59:52.133Z,936.42
2018-05-21T08:00:52.145Z,936.40
2018-05-21T08:01:52.156Z,936.42
2018-05-21T08:02:52.169Z,936.42
2018-05-21T08:03:52.184Z,936.36
2018-05-21T08:04:52.209Z,936.36
2018-05-21T08:05:52.203Z,936.38
2018-05-21T08:06:52.217Z,936.34
2018-05-21T08:07:52.231Z,936.35
2018-05-21T08:08:52.243Z,936.39
2018-05-21T08:09:52.258Z,936.41
2018-05-21T08:10:52.271Z,936.34
2018-05-21T08:11:52.285Z,936.33
2018-05-21T08:12:52.299Z,936.34
2018-05-21T08:13:52.316Z,936.36
2018-05-21T08:14:52.345Z,936.35
2018-05-21T08:15:52.345Z,936.37
2018-05-21T08:16:52.358Z,936.36
2018-05-21T08:17:52.373Z,936.34
2018-05-21T08:18:52.389Z,936.34
2018-05-21T08:19:52.404Z,936.36
2018-05-21T08:20:52.421Z,936.29
2018-05-21T08:21:52.435Z,936.30
2018-05-21T08:22:52.450Z,936.30
2018-05-21T08:23:52.465Z,936.30
2018-05-21T08:24:52.483Z,936.31
2018-05-21T08:25:52.498Z,936.31
2018-05-21T08:26:52.533Z,936.31
2018-05-21T08:27:52.541Z,936.33
2018-05-21T08:28:52.545Z,936.28
2018-05-21T08:29:52.560Z,936.33
2018-05-21T08:30:52.575Z,936.34
2018-05-21T08:31:52.591Z,936.28
2018-05-21T08:32:52.607Z,936.28
2018-05-21T08:33:52.621Z,936.30
2018-05-21T08:34:52.638Z,936.26
2018-05-21T08:35:52.651Z,936.28
2018-05-21T08:36:52.671Z,936.24
2018-05-21T08:37:52.684Z,936.20
2018-05-21T08:38:52.699Z,936.20
2018-05-21T08:39:52.721Z,936.22
2018-05-21T08:40:52.730Z,936.22
2018-05-21T08:41:52.745Z,936.20
2018-05-21T08:42:52.761Z,936.21
2018-05-21T08:43:52.780Z,936.18
2018-05-21T08:44:52.794Z,936.17
2018-05-21T08:45:52.807Z,936.16
2018-05-21T08:46:52.824Z,936.19
2018-05-21T08:47:52.839Z,936.15
2018-05-21T08:48:52.968Z,936.16
2018-05-21T08:49:52.871Z,936.16
2018-05-21T08:50:52.910Z,936.19
2018-05-21T08:51:52.902Z,936.18
2018-05-21T08:52:52.922Z,936.15
2018-05-21T08:53:52.937Z,936.15
2018-05-21T08:54:52.951Z,936.19
2018-05-21T08:55:53.042Z,936.20
2018-05-21T08:56:52.984Z,936.20
2018-05-21T08:57:53.000Z,936.16
2018-05-21T08:58:53.021Z,936.16
2018-05-21T08:59:53.031Z,936.14
2018-05-21T09:00:53.049Z,936.15
2018-05-21T09:01:53.061Z,936.15
2018-05-21T09:02:53.079Z,936.17
2018-05-21T09:03:53.095Z,936.12
2018-05-21T09:04:53.109Z,936.08
2018-05-21T09:05:53.126Z,936.09
2018-05-21T09:06:53.142Z,936.14
2018-05-21T09:07:53.157Z,936.07
2018-05-21T09:08:53.173Z,936.07
2018-05-21T09:09:53.190Z,936.06
2018-05-21T09:10:53.207Z,936.05
2018-05-21T09:11:53.225Z,936.04
2018-05-21T09:12:53.237Z,936.02
2018-05-21T09:13:53.253Z,936.03
2018-05-21T09:14:53.269Z,936.02
2018-05-21T09:15:53.284Z,936.02
2018-05-21T09:16:53.301Z,936.05
2018-05-21T09:17:53.317Z,936.04
2018-05-21T09:18:53.334Z,936.02
2018-05-21T09:19:53.347Z,936.05
2018-05-21T09:20:53.365Z,936.04
2018-05-21T09:21:53.379Z,936.00
2018-05-21T09:22:53.401Z,936.03
2018-05-21T09:23:53.411Z,936.02
2018-05-21T09:24:53.428Z,936.02
2018-05-21T09:25:53.443Z,935.99
2018-05-21T09:26:53.461Z,936.01
2018-05-21T09:27:53.477Z,936.01
2018-05-21T09:28:53.491Z,936.00
2018-05-21T09:29:53.509Z,936.01
2018-05-21T09:30:53.523Z,935.97
2018-05-21T09:31:53.542Z,935.99
2018-05-21T09:32:53.555Z,936.01
2018-05-21T09:33:53.572Z,935.97
2018-05-21T09:34:53.589Z,935.98
2018-05-21T09:35:53.601Z,936.03
2018-05-21T09:36:53.621Z,936.02
2018-05-21T09:37:53.633Z,936.03
2018-05-21T09:38:53.648Z,936.04
2018-05-21T09:39:53.662Z,936.03
2018-05-21T09:40:53.679Z,936.02
2018-05-21T09:41:53.703Z,936.00
2018-05-21T09:42:53.756Z,936.02
2018-05-21T09:43:53.724Z,936.01
2018-05-21T09:44:53.740Z,936.02
2018-05-21T09:45:53.757Z,935.98
2018-05-21T09:46:53.770Z,935.99
2018-05-21T09:47:53.786Z,936.00
2018-05-21T09:48:53.801Z,935.98
2018-05-21T09:49:53.814Z,935.98
2018-05-21T09:50:53.830Z,935.96
2018-05-21T09:51:53.843Z,935.95
2018-05-21T09:52:53.859Z,935.96
2018-05-21T09:53:53.875Z,935.96
2018-05-21T09:54:53.890Z,935.90
2018-05-21T09:55:53.905Z,935.91
2018-05-21T09:56:53.919Z,935.97
2018-05-21T09:57:53.934Z,935.96
2018-05-21T09:58:53.949Z,935.95
2018-05-21T09:59:53.965Z,935.92
2018-05-21T10:00:53.996Z,935.95
2018-05-21T10:01:53.993Z,935.91
2018-05-21T10:02:54.008Z,935.89
2018-05-21T10:03:54.022Z,935.89
2018-05-21T10:04:54.037Z,935.88
2018-05-21T10:05:54.052Z,935.91
2018-05-21T10:06:54.067Z,935.89
2018-05-21T10:07:54.080Z,935.88
2018-05-21T10:08:54.094Z,935.89
2018-05-21T10:09:54.110Z,935.91
2018-05-21T10:10:54.129Z,935.84
2018-05-21T10:11:54.140Z,935.84
2018-05-21T10:12:54.154Z,935.85
2018-05-21T10:13:54.168Z,935.86
2018-05-21T10:14:54.183Z,935.86
2018-05-21T10:15:54.199Z,935.87
2018-05-21T10:16:54.212Z,935.83
2018-05-21T10:17:54.227Z,935.81
2018-05-21T10:18:54.243Z,935.84
2018-05-21T10:19:54.255Z,935.81
2018-05-21T10:20:54.269Z,935.81
2018-05-21T10:21:54.575Z,935.83
2018-05-21T10:22:54.299Z,935.89
2018-05-21T10:23:54.314Z,935.79
2018-05-21T10:24:54.328Z,935.79
2018-05-21T10:25:54.351Z,935.83
2018-05-21T10:26:54.357Z,935.85
2018-05-21T10:27:54.374Z,935.84
2018-05-21T10:28:54.386Z,935.85
2018-05-21T10:29:54.709Z,935.82
2018-05-21T10:30:54.413Z,935.79
2018-05-21T10:31:54.427Z,935.81
2018-05-21T10:32:54.446Z,935.79
2018-05-21T10:33:54.462Z,935.82
2018-05-21T10:34:54.475Z,935.82
2018-05-21T10:35:54.488Z,935.83
2018-05-21T10:36:54.502Z,935.84
2018-05-21T10:37:54.515Z,935.85
2018-05-21T10:38:54.529Z,935.82
2018-05-21T10:39:54.543Z,935.82
2018-05-21T10:40:54.556Z,935.80
2018-05-21T10:41:54.570Z,935.79
2018-05-21T10:42:54.584Z,935.77
2018-05-21T10:43:54.712Z,935.74
2018-05-21T10:44:54.612Z,935.74
2018-05-21T10:45:54.626Z,935.69
2018-05-21T10:46:54.640Z,935.70
2018-05-21T10:47:54.654Z,935.71
2018-05-21T10:48:54.672Z,935.67
2018-05-21T10:49:54.683Z,935.66
2018-05-21T10:50:54.696Z,935.65
2018-05-21T10:51:54.710Z,935.66
2018-05-21T10:52:54.728Z,935.62
2018-05-21T10:53:54.739Z,935.64
2018-05-21T10:54:54.754Z,935.63
2018-05-21T10:55:54.768Z,935.64
2018-05-21T10:56:54.782Z,935.64
2018-05-21T10:57:54.796Z,935.62
2018-05-21T10:58:54.813Z,935.62
2018-05-21T10:59:54.823Z,935.59
2018-05-21T11:00:54.848Z,935.59
2018-05-21T11:01:54.853Z,935.59
2018-05-21T11:02:54.865Z,935.54
2018-05-21T11:03:54.878Z,935.56
2018-05-21T11:04:54.893Z,935.52
2018-05-21T11:05:54.907Z,935.52
2018-05-21T11:06:55.101Z,935.54
2018-05-21T11:07:54.939Z,935.50
2018-05-21T11:08:54.948Z,935.51
2018-05-21T11:09:54.962Z,935.47
2018-05-21T11:10:55.008Z,935.49
2018-05-21T11:11:54.990Z,935.52
2018-05-21T11:12:55.003Z,935.55
2018-05-21T11:13:55.016Z,935.50
2018-05-21T11:14:55.031Z,935.53
2018-05-21T11:15:55.044Z,935.50
2018-05-21T11:16:55.078Z,935.45
2018-05-21T11:17:55.104Z,935.48
2018-05-21T11:18:55.084Z,935.50
2018-05-21T11:19:55.098Z,935.47
2018-05-21T11:20:55.111Z,935.50
2018-05-21T11:21:55.126Z,935.49
2018-05-21T11:22:55.136Z,935.46
2018-05-21T11:23:55.150Z,935.47
2018-05-21T11:24:55.164Z,935.48
2018-05-21T11:25:55.177Z,935.40
2018-05-21T11:26:55.190Z,935.44
2018-05-21T11:27:55.203Z,935.39
2018-05-21T11:28:55.216Z,935.39
2018-05-21T11:29:55.229Z,935.37
2018-05-21T11:30:55.242Z,935.33
2018-05-21T11:31:55.261Z,935.38
2018-05-21T11:32:55.268Z,935.38
2018-05-21T11:33:55.281Z,935.34
2018-05-21T11:34:55.297Z,935.29
2018-05-21T11:35:55.306Z,935.33
2018-05-21T11:36:55.320Z,935.32
2018-05-21T11:37:55.333Z,935.29
2018-05-21T11:38:55.343Z,935.29
2018-05-21T11:39:55.358Z,935.30
2018-05-21T11:40:55.369Z,935.25
2018-05-21T11:41:55.383Z,935.27
2018-05-21T11:42:55.395Z,935.25
2018-05-21T11:43:55.406Z,935.26
2018-05-21T11:44:55.420Z,935.25
2018-05-21T11:45:55.431Z,935.27
2018-05-21T11:46:55.444Z,935.21
2018-05-21T11:47:55.456Z,935.19
2018-05-21T11:48:55.469Z,935.22
2018-05-21T11:49:55.482Z,935.21
2018-05-21T11:50:55.494Z,935.17
2018-05-21T11:51:55.506Z,935.17
2018-05-21T11:52:55.522Z,935.15
2018-05-21T11:53:55.540Z,935.13
2018-05-21T11:54:55.543Z,935.15
2018-05-21T11:55:55.556Z,935.14
2018-05-21T11:56:55.573Z,935.10
2018-05-21T11:57:55.586Z,935.06
2018-05-21T11:58:55.594Z,935.05
2018-05-21T11:59:55.611Z,935.05
2018-05-21T12:00:55.638Z,935.05
2018-05-21T12:01:55.664Z,935.04
2018-05-21T12:02:55.642Z,935.02
2018-05-21T12:03:55.653Z,935.03
2018-05-21T12:04:55.666Z,934.99
2018-05-21T12:05:55.678Z,935.02
2018-05-21T12:06:55.690Z,935.01
2018-05-21T12:07:55.701Z,935.03
2018-05-21T12:08:55.713Z,935.02
2018-05-21T12:09:55.726Z,935.01
2018-05-21T12:10:55.739Z,934.98
2018-05-21T12:11:55.750Z,934.98
2018-05-21T12:12:55.763Z,935.03
2018-05-21T12:13:55.777Z,935.03
2018-05-21T12:14:55.787Z,935.02
2018-05-21T12:15:55.797Z,935.02
2018-05-21T12:16:55.810Z,934.98
2018-05-21T12:17:55.822Z,934.98
2018-05-21T12:18:55.834Z,934.95
2018-05-21T12:19:55.847Z,934.92
2018-05-21T12:20:55.858Z,934.91
2018-05-21T12:21:55.878Z,934.91
2018-05-21T12:22:55.883Z,934.97
2018-05-21T12:23:55.893Z,935.00
2018-05-21T12:24:55.905Z,934.91
2018-05-21T12:25:55.918Z,934.93
2018-05-21T12:26:55.932Z,934.96
2018-05-21T12:27:55.941Z,934.92
2018-05-21T12:28:55.955Z,934.97